sensor_id;sensor_type;location;lat;lon;timestamp;temperature;humidity
23560;DHT22;11958;50.836;4.438;2023-04-03T00:01:13;4.20;83.50
23560;DHT22;11958;50.836;4.438;2023-04-03T00:11:38;3.80;84.40
23560;DHT22;11958;50.836;4.438;2023-04-03T00:17:25;3.70;84.20
23560;DHT22;11958;50.836;4.438;2023-04-03T00:47:17;3.60;83.50
23560;DHT22;11958;50.836;4.438;2023-04-03T00:56:43;4.00;82.70
23560;DHT22;11958;50.836;4.438;2023-04-03T00:59:32;3.90;82.20
23560;DHT22;11958;50.836;4.438;2023-04-03T01:29:05;4.00;81.10
23560;DHT22;11958;50.836;4.438;2023-04-03T01:51:37;3.60;80.70
23560;DHT22;11958;50.836;4.438;2023-04-03T01:54:03;3.80;80.60
23560;DHT22;11958;50.836;4.438;2023-04-03T01:56:29;4.10;80.40
23560;DHT22;11958;50.836;4.438;2023-04-03T01:58:55;3.80;79.80
23560;DHT22;11958;50.836;4.438;2023-04-03T02:01:20;3.90;79.80
23560;DHT22;11958;50.836;4.438;2023-04-03T02:06:21;3.50;80.80
23560;DHT22;11958;50.836;4.438;2023-04-03T02:27:17;3.70;80.30
23560;DHT22;11958;50.836;4.438;2023-04-03T02:29:43;4.00;79.40
23560;DHT22;11958;50.836;4.438;2023-04-03T02:32:09;3.60;79.90
23560;DHT22;11958;50.836;4.438;2023-04-03T02:34:35;3.40;79.70
23560;DHT22;11958;50.836;4.438;2023-04-03T02:51:21;3.60;80.00
23560;DHT22;11958;50.836;4.438;2023-04-03T03:07:29;2.70;82.10
23560;DHT22;11958;50.836;4.438;2023-04-03T03:26:44;2.50;83.30
23560;DHT22;11958;50.836;4.438;2023-04-03T03:39:52;2.50;83.50
23560;DHT22;11958;50.836;4.438;2023-04-03T03:54:11;2.60;83.30
23560;DHT22;11958;50.836;4.438;2023-04-03T04:00:05;2.60;83.80
23560;DHT22;11958;50.836;4.438;2023-04-03T04:05:54;2.70;83.30
23560;DHT22;11958;50.836;4.438;2023-04-03T04:15:16;2.40;82.90
23560;DHT22;11958;50.836;4.438;2023-04-03T04:38:29;2.40;82.70
23560;DHT22;11958;50.836;4.438;2023-04-03T04:44:57;2.80;81.30
23560;DHT22;11958;50.836;4.438;2023-04-03T04:57:03;2.70;82.00
23560;DHT22;11958;50.836;4.438;2023-04-03T05:02:36;2.80;81.80
23560;DHT22;11958;50.836;4.438;2023-04-03T05:05:02;2.80;81.70
23560;DHT22;11958;50.836;4.438;2023-04-03T05:07:28;2.50;81.80
23560;DHT22;11958;50.836;4.438;2023-04-03T05:09:53;2.40;82.10
23560;DHT22;11958;50.836;4.438;2023-04-03T05:12:19;2.40;82.50
23560;DHT22;11958;50.836;4.438;2023-04-03T05:14:44;2.40;83.10
23560;DHT22;11958;50.836;4.438;2023-04-03T05:17:10;2.40;82.50
23560;DHT22;11958;50.836;4.438;2023-04-03T05:19:36;2.30;82.80
23560;DHT22;11958;50.836;4.438;2023-04-03T05:22:01;2.40;83.00
23560;DHT22;11958;50.836;4.438;2023-04-03T05:24:28;2.10;83.30
23560;DHT22;11958;50.836;4.438;2023-04-03T05:26:53;2.50;83.30
23560;DHT22;11958;50.836;4.438;2023-04-03T05:29:20;2.30;82.90
23560;DHT22;11958;50.836;4.438;2023-04-03T05:31:46;2.20;82.60
23560;DHT22;11958;50.836;4.438;2023-04-03T05:34:11;2.10;83.50
23560;DHT22;11958;50.836;4.438;2023-04-03T05:36:37;2.10;83.70
23560;DHT22;11958;50.836;4.438;2023-04-03T05:39:03;2.30;84.20
23560;DHT22;11958;50.836;4.438;2023-04-03T05:41:29;2.10;84.10
23560;DHT22;11958;50.836;4.438;2023-04-03T05:43:55;2.20;84.30
23560;DHT22;11958;50.836;4.438;2023-04-03T05:46:20;2.10;84.50
23560;DHT22;11958;50.836;4.438;2023-04-03T05:48:47;2.20;84.50
23560;DHT22;11958;50.836;4.438;2023-04-03T05:51:35;2.10;84.60
23560;DHT22;11958;50.836;4.438;2023-04-03T06:07:28;2.30;83.90
23560;DHT22;11958;50.836;4.438;2023-04-03T06:09:59;2.60;84.50
23560;DHT22;11958;50.836;4.438;2023-04-03T06:12:27;2.50;84.10
23560;DHT22;11958;50.836;4.438;2023-04-03T06:14:56;2.80;83.60
23560;DHT22;11958;50.836;4.438;2023-04-03T06:17:22;2.80;83.60
23560;DHT22;11958;50.836;4.438;2023-04-03T06:19:48;2.90;83.00
23560;DHT22;11958;50.836;4.438;2023-04-03T06:22:15;2.80;82.70
23560;DHT22;11958;50.836;4.438;2023-04-03T06:24:41;2.80;82.60
23560;DHT22;11958;50.836;4.438;2023-04-03T06:27:07;2.90;82.90
23560;DHT22;11958;50.836;4.438;2023-04-03T06:29:32;3.00;82.90
23560;DHT22;11958;50.836;4.438;2023-04-03T06:31:58;3.30;81.80
23560;DHT22;11958;50.836;4.438;2023-04-03T06:34:24;3.30;81.80
23560;DHT22;11958;50.836;4.438;2023-04-03T06:36:50;3.30;81.30
23560;DHT22;11958;50.836;4.438;2023-04-03T06:39:19;3.40;81.30
23560;DHT22;11958;50.836;4.438;2023-04-03T06:42:09;3.40;80.10
23560;DHT22;11958;50.836;4.438;2023-04-03T06:44:39;3.20;80.30
23560;DHT22;11958;50.836;4.438;2023-04-03T06:47:05;3.80;79.80
23560;DHT22;11958;50.836;4.438;2023-04-03T06:49:31;3.70;79.40
23560;DHT22;11958;50.836;4.438;2023-04-03T06:51:57;3.70;79.90
23560;DHT22;11958;50.836;4.438;2023-04-03T06:54:23;3.50;79.60
23560;DHT22;11958;50.836;4.438;2023-04-03T06:56:48;3.90;79.70
23560;DHT22;11958;50.836;4.438;2023-04-03T06:59:15;3.90;79.20
23560;DHT22;11958;50.836;4.438;2023-04-03T07:01:41;3.90;79.30
23560;DHT22;11958;50.836;4.438;2023-04-03T07:04:07;4.20;78.40
23560;DHT22;11958;50.836;4.438;2023-04-03T07:06:34;4.10;78.70
23560;DHT22;11958;50.836;4.438;2023-04-03T07:09:00;4.00;79.00
23560;DHT22;11958;50.836;4.438;2023-04-03T07:11:27;3.60;79.40
23560;DHT22;11958;50.836;4.438;2023-04-03T07:14:02;4.20;78.80
23560;DHT22;11958;50.836;4.438;2023-04-03T07:19:53;4.10;78.10
23560;DHT22;11958;50.836;4.438;2023-04-03T07:22:19;4.30;78.30
23560;DHT22;11958;50.836;4.438;2023-04-03T07:24:45;4.20;77.90
23560;DHT22;11958;50.836;4.438;2023-04-03T07:27:11;4.40;78.00
23560;DHT22;11958;50.836;4.438;2023-04-03T07:29:38;4.60;78.30
23560;DHT22;11958;50.836;4.438;2023-04-03T07:32:04;4.40;77.70
23560;DHT22;11958;50.836;4.438;2023-04-03T07:34:31;4.70;77.40
23560;DHT22;11958;50.836;4.438;2023-04-03T07:36:58;5.00;76.60
23560;DHT22;11958;50.836;4.438;2023-04-03T07:39:24;5.10;75.20
23560;DHT22;11958;50.836;4.438;2023-04-03T07:41:50;5.00;75.50
23560;DHT22;11958;50.836;4.438;2023-04-03T07:44:16;5.30;73.80
23560;DHT22;11958;50.836;4.438;2023-04-03T07:46:42;5.20;74.30
23560;DHT22;11958;50.836;4.438;2023-04-03T07:49:07;5.20;74.30
23560;DHT22;11958;50.836;4.438;2023-04-03T07:51:33;5.20;74.90
23560;DHT22;11958;50.836;4.438;2023-04-03T07:53:59;5.40;73.60
23560;DHT22;11958;50.836;4.438;2023-04-03T07:56:24;5.60;73.00
23560;DHT22;11958;50.836;4.438;2023-04-03T07:58:50;5.50;72.70
23560;DHT22;11958;50.836;4.438;2023-04-03T08:01:16;5.80;72.40
23560;DHT22;11958;50.836;4.438;2023-04-03T08:03:41;6.10;69.70
23560;DHT22;11958;50.836;4.438;2023-04-03T08:06:09;6.00;68.70
23560;DHT22;11958;50.836;4.438;2023-04-03T08:08:35;6.20;69.00
23560;DHT22;11958;50.836;4.438;2023-04-03T08:11:01;6.40;66.80
23560;DHT22;11958;50.836;4.438;2023-04-03T08:13:29;6.30;67.70
23560;DHT22;11958;50.836;4.438;2023-04-03T08:22:02;6.20;66.10
23560;DHT22;11958;50.836;4.438;2023-04-03T08:41:47;6.80;66.30
23560;DHT22;11958;50.836;4.438;2023-04-03T08:51:12;7.10;65.80
23560;DHT22;11958;50.836;4.438;2023-04-03T08:57:33;7.50;64.50
23560;DHT22;11958;50.836;4.438;2023-04-03T09:10:15;7.20;62.80
23560;DHT22;11958;50.836;4.438;2023-04-03T09:12:46;7.10;64.20
23560;DHT22;11958;50.836;4.438;2023-04-03T09:15:22;7.70;62.60
23560;DHT22;11958;50.836;4.438;2023-04-03T09:18:19;7.90;61.80
23560;DHT22;11958;50.836;4.438;2023-04-03T09:23:55;8.20;60.70
23560;DHT22;11958;50.836;4.438;2023-04-03T09:26:34;8.30;58.70
23560;DHT22;11958;50.836;4.438;2023-04-03T09:29:05;7.90;58.40
23560;DHT22;11958;50.836;4.438;2023-04-03T09:31:38;8.00;58.90
23560;DHT22;11958;50.836;4.438;2023-04-03T09:37:02;8.20;57.70
23560;DHT22;11958;50.836;4.438;2023-04-03T09:39:46;8.40;57.90
23560;DHT22;11958;50.836;4.438;2023-04-03T09:42:25;8.40;57.00
23560;DHT22;11958;50.836;4.438;2023-04-03T09:45:04;8.60;56.30
23560;DHT22;11958;50.836;4.438;2023-04-03T09:47:33;8.50;57.00
23560;DHT22;11958;50.836;4.438;2023-04-03T09:50:21;8.50;56.80
23560;DHT22;11958;50.836;4.438;2023-04-03T09:52:52;8.30;55.70
23560;DHT22;11958;50.836;4.438;2023-04-03T09:55:26;8.50;56.20
23560;DHT22;11958;50.836;4.438;2023-04-03T09:58:04;8.50;56.00
23560;DHT22;11958;50.836;4.438;2023-04-03T10:00:36;8.90;52.80
23560;DHT22;11958;50.836;4.438;2023-04-03T10:03:23;8.90;52.70
23560;DHT22;11958;50.836;4.438;2023-04-03T10:05:49;8.70;53.10
23560;DHT22;11958;50.836;4.438;2023-04-03T10:34:35;9.30;49.00
23560;DHT22;11958;50.836;4.438;2023-04-03T10:37:26;9.20;51.10
23560;DHT22;11958;50.836;4.438;2023-04-03T10:53:39;9.30;49.60
23560;DHT22;11958;50.836;4.438;2023-04-03T11:01:41;9.50;46.80
23560;DHT22;11958;50.836;4.438;2023-04-03T11:04:19;9.80;46.30
23560;DHT22;11958;50.836;4.438;2023-04-03T11:10:15;9.40;46.90
23560;DHT22;11958;50.836;4.438;2023-04-03T11:12:46;9.60;45.30
23560;DHT22;11958;50.836;4.438;2023-04-03T11:15:18;9.80;45.00
23560;DHT22;11958;50.836;4.438;2023-04-03T11:17:54;10.30;43.40
23560;DHT22;11958;50.836;4.438;2023-04-03T11:20:27;10.50;40.70
23560;DHT22;11958;50.836;4.438;2023-04-03T11:25:29;10.20;41.80
23560;DHT22;11958;50.836;4.438;2023-04-03T11:28:04;9.90;41.90
23560;DHT22;11958;50.836;4.438;2023-04-03T11:36:28;10.60;41.70
23560;DHT22;11958;50.836;4.438;2023-04-03T11:38:59;10.50;41.90
23560;DHT22;11958;50.836;4.438;2023-04-03T11:41:29;10.20;42.00
23560;DHT22;11958;50.836;4.438;2023-04-03T11:44:01;10.40;41.60
23560;DHT22;11958;50.836;4.438;2023-04-03T12:16:21;12.10;38.50
23560;DHT22;11958;50.836;4.438;2023-04-03T12:32:40;16.40;24.90
23560;DHT22;11958;50.836;4.438;2023-04-03T12:46:18;19.50;19.90
23560;DHT22;11958;50.836;4.438;2023-04-03T12:51:14;19.60;20.30
23560;DHT22;11958;50.836;4.438;2023-04-03T12:53:40;19.90;18.90
23560;DHT22;11958;50.836;4.438;2023-04-03T12:56:25;19.10;19.00
23560;DHT22;11958;50.836;4.438;2023-04-03T12:58:53;19.20;19.30
23560;DHT22;11958;50.836;4.438;2023-04-03T13:01:26;19.50;19.00
23560;DHT22;11958;50.836;4.438;2023-04-03T13:03:54;20.00;18.50
23560;DHT22;11958;50.836;4.438;2023-04-03T13:06:24;21.20;16.50
23560;DHT22;11958;50.836;4.438;2023-04-03T13:08:53;20.70;16.90
23560;DHT22;11958;50.836;4.438;2023-04-03T13:11:20;20.60;17.60
23560;DHT22;11958;50.836;4.438;2023-04-03T13:14:03;20.30;17.20
23560;DHT22;11958;50.836;4.438;2023-04-03T13:16:31;21.20;14.90
23560;DHT22;11958;50.836;4.438;2023-04-03T13:18:58;21.30;14.60
23560;DHT22;11958;50.836;4.438;2023-04-03T13:21:29;21.00;14.90
23560;DHT22;11958;50.836;4.438;2023-04-03T13:23:58;21.20;13.90
23560;DHT22;11958;50.836;4.438;2023-04-03T13:26:29;20.10;16.00
23560;DHT22;11958;50.836;4.438;2023-04-03T13:28:58;19.50;16.20
23560;DHT22;11958;50.836;4.438;2023-04-03T13:31:29;20.30;16.10
23560;DHT22;11958;50.836;4.438;2023-04-03T13:34:15;19.20;16.30
23560;DHT22;11958;50.836;4.438;2023-04-03T13:40:11;19.60;16.60
23560;DHT22;11958;50.836;4.438;2023-04-03T13:42:41;20.30;15.60
23560;DHT22;11958;50.836;4.438;2023-04-03T13:45:25;19.50;16.20
23560;DHT22;11958;50.836;4.438;2023-04-03T13:48:09;19.60;16.00
23560;DHT22;11958;50.836;4.438;2023-04-03T13:50:57;19.30;16.90
23560;DHT22;11958;50.836;4.438;2023-04-03T13:53:24;20.90;16.00
23560;DHT22;11958;50.836;4.438;2023-04-03T13:58:28;20.60;15.50
23560;DHT22;11958;50.836;4.438;2023-04-03T14:01:20;21.10;14.50
23560;DHT22;11958;50.836;4.438;2023-04-03T14:03:51;20.60;16.10
23560;DHT22;11958;50.836;4.438;2023-04-03T14:09:40;19.30;16.00
23560;DHT22;11958;50.836;4.438;2023-04-03T14:14:45;19.70;17.40
23560;DHT22;11958;50.836;4.438;2023-04-03T14:17:19;21.50;14.30
23560;DHT22;11958;50.836;4.438;2023-04-03T14:19:47;21.60;14.70
23560;DHT22;11958;50.836;4.438;2023-04-03T14:22:17;21.70;14.10
23560;DHT22;11958;50.836;4.438;2023-04-03T14:24:43;22.10;13.10
23560;DHT22;11958;50.836;4.438;2023-04-03T14:27:46;22.30;13.00
23560;DHT22;11958;50.836;4.438;2023-04-03T14:30:28;21.70;13.00
23560;DHT22;11958;50.836;4.438;2023-04-03T14:32:57;21.00;14.00
23560;DHT22;11958;50.836;4.438;2023-04-03T14:35:23;20.10;15.30
23560;DHT22;11958;50.836;4.438;2023-04-03T14:37:51;19.90;15.50
23560;DHT22;11958;50.836;4.438;2023-04-03T14:40:26;19.00;16.30
23560;DHT22;11958;50.836;4.438;2023-04-03T14:42:53;18.70;16.10
23560;DHT22;11958;50.836;4.438;2023-04-03T14:45:21;18.90;17.40
23560;DHT22;11958;50.836;4.438;2023-04-03T14:47:50;20.20;15.90
23560;DHT22;11958;50.836;4.438;2023-04-03T14:50:20;21.00;13.30
23560;DHT22;11958;50.836;4.438;2023-04-03T14:52:47;20.70;15.50
23560;DHT22;11958;50.836;4.438;2023-04-03T14:55:19;20.10;15.10
23560;DHT22;11958;50.836;4.438;2023-04-03T14:57:45;19.80;15.30
23560;DHT22;11958;50.836;4.438;2023-04-03T15:00:16;20.00;16.30
23560;DHT22;11958;50.836;4.438;2023-04-03T15:02:42;20.00;15.40
23560;DHT22;11958;50.836;4.438;2023-04-03T15:05:10;19.30;15.50
23560;DHT22;11958;50.836;4.438;2023-04-03T15:07:50;17.10;18.20
23560;DHT22;11958;50.836;4.438;2023-04-03T15:10:28;15.40;20.10
23560;DHT22;11958;50.836;4.438;2023-04-03T15:12:55;15.30;20.90
23560;DHT22;11958;50.836;4.438;2023-04-03T15:15:22;14.80;21.00
23560;DHT22;11958;50.836;4.438;2023-04-03T15:17:54;14.60;21.30
23560;DHT22;11958;50.836;4.438;2023-04-03T15:20:26;15.10;20.40
23560;DHT22;11958;50.836;4.438;2023-04-03T15:22:59;14.80;20.70
23560;DHT22;11958;50.836;4.438;2023-04-03T15:25:30;14.90;22.00
23560;DHT22;11958;50.836;4.438;2023-04-03T15:27:57;15.50;20.10
23560;DHT22;11958;50.836;4.438;2023-04-03T15:30:23;15.20;21.50
23560;DHT22;11958;50.836;4.438;2023-04-03T15:32:49;15.10;22.00
23560;DHT22;11958;50.836;4.438;2023-04-03T15:35:15;15.10;21.50
23560;DHT22;11958;50.836;4.438;2023-04-03T15:37:41;15.20;21.50
23560;DHT22;11958;50.836;4.438;2023-04-03T15:40:07;14.90;22.80
23560;DHT22;11958;50.836;4.438;2023-04-03T15:42:33;14.40;22.90
23560;DHT22;11958;50.836;4.438;2023-04-03T15:45:00;14.60;22.30
23560;DHT22;11958;50.836;4.438;2023-04-03T15:47:27;14.90;21.90
23560;DHT22;11958;50.836;4.438;2023-04-03T15:49:54;14.30;22.30
23560;DHT22;11958;50.836;4.438;2023-04-03T15:52:20;13.50;23.60
23560;DHT22;11958;50.836;4.438;2023-04-03T15:54:46;12.90;25.30
23560;DHT22;11958;50.836;4.438;2023-04-03T17:21:32;10.30;33.10
23560;DHT22;11958;50.836;4.438;2023-04-03T18:34:30;8.90;36.60
23560;DHT22;11958;50.836;4.438;2023-04-03T20:35:10;7.10;42.00
23560;DHT22;11958;50.836;4.438;2023-04-03T20:37:38;7.10;43.00
23560;DHT22;11958;50.836;4.438;2023-04-03T20:40:06;7.20;42.40
23560;DHT22;11958;50.836;4.438;2023-04-03T20:42:31;7.00;43.30
23560;DHT22;11958;50.836;4.438;2023-04-03T20:44:57;6.90;43.30
23560;DHT22;11958;50.836;4.438;2023-04-03T20:47:23;6.80;43.90
23560;DHT22;11958;50.836;4.438;2023-04-03T20:49:49;6.80;43.80
23560;DHT22;11958;50.836;4.438;2023-04-03T20:52:16;6.70;43.80
23560;DHT22;11958;50.836;4.438;2023-04-03T20:54:42;6.80;44.10
23560;DHT22;11958;50.836;4.438;2023-04-03T20:57:08;6.60;44.60
23560;DHT22;11958;50.836;4.438;2023-04-03T20:59:34;6.60;44.50
23560;DHT22;11958;50.836;4.438;2023-04-03T21:02:01;6.30;45.60
23560;DHT22;11958;50.836;4.438;2023-04-03T21:04:32;6.30;46.20
23560;DHT22;11958;50.836;4.438;2023-04-03T21:35:24;6.60;45.50
23560;DHT22;11958;50.836;4.438;2023-04-03T21:51:12;6.00;46.90
23560;DHT22;11958;50.836;4.438;2023-04-03T22:04:21;5.90;47.40
23560;DHT22;11958;50.836;4.438;2023-04-03T22:34:00;6.00;47.60
23560;DHT22;11958;50.836;4.438;2023-04-03T22:36:50;5.80;47.10
23560;DHT22;11958;50.836;4.438;2023-04-03T22:39:15;5.80;48.20
23560;DHT22;11958;50.836;4.438;2023-04-03T22:41:50;5.90;48.50
23560;DHT22;11958;50.836;4.438;2023-04-03T22:58:04;5.50;48.80
23560;DHT22;11958;50.836;4.438;2023-04-03T23:04:14;5.80;47.40
23560;DHT22;11958;50.836;4.438;2023-04-03T23:06:52;5.80;47.10
23560;DHT22;11958;50.836;4.438;2023-04-03T23:20:18;5.70;47.90
23560;DHT22;11958;50.836;4.438;2023-04-03T23:43:18;5.00;49.70
23560;DHT22;11958;50.836;4.438;2023-04-03T23:45:43;4.80;50.90
23560;DHT22;11958;50.836;4.438;2023-04-03T23:48:09;5.20;50.50
23560;DHT22;11958;50.836;4.438;2023-04-03T23:50:35;4.90;52.00
23560;DHT22;11958;50.836;4.438;2023-04-03T23:53:01;4.60;52.10
23560;DHT22;11958;50.836;4.438;2023-04-03T23:55:27;4.50;51.80
23560;DHT22;11958;50.836;4.438;2023-04-03T23:57:52;4.40;53.70
